Time;durP1;ratioP1;P1;durP2;ratioP2;P2;SDS_P1;SDS_P2;PMS_P1;PMS_P2;Temp;Humidity;BMP_temperature;BMP_pressure;BME280_temperature;BME280_humidity;BME280_pressure;Samples;Min_cycle;Max_cycle;Signal;HPM_P1;HPM_P2
2023/02/09 00:01:55;;;;;;;60.50;31.13;;;-2.80;99.90;;;-4.41;100.00;98843.06;5051588;28;20409;-73
2023/02/09 00:04:20;;;;;;;55.53;29.17;;;-2.80;99.90;;;-4.34;100.00;98840.81;5052868;28;20455;-73
2023/02/09 00:06:46;;;;;;;55.50;29.42;;;-2.80;99.90;;;-4.45;100.00;98843.44;5052844;28;20409;-73
2023/02/09 00:09:12;;;;;;;56.47;30.55;;;-2.80;99.90;;;-4.45;100.00;98843.44;5052757;28;20409;-73
2023/02/09 00:14:24;;;;;;;55.45;28.77;;;-2.90;99.90;;;-4.52;100.00;98840.53;5052656;28;20428;-73
2023/02/09 00:16:51;;;;;;;60.50;30.67;;;-2.90;99.90;;;-4.50;100.00;98840.38;5052589;28;20414;-72
2023/02/09 00:19:19;;;;;;;61.50;32.77;;;-2.90;99.90;;;-4.52;100.00;98839.72;5052566;28;20402;-73
2023/02/09 00:21:46;;;;;;;59.10;31.67;;;-2.90;99.90;;;-4.52;100.00;98834.53;5052153;28;20398;-73
2023/02/09 00:24:13;;;;;;;64.87;32.00;;;-2.90;99.90;;;-4.48;100.00;98835.91;5052598;28;20397;-74
2023/02/09 00:26:40;;;;;;;56.10;30.35;;;-2.90;99.90;;;-4.50;100.00;98830.06;5052478;28;20767;-73
2023/02/09 00:29:07;;;;;;;57.55;30.58;;;-2.90;99.90;;;-4.49;100.00;98831.69;5052549;28;20437;-73
2023/02/09 00:31:34;;;;;;;54.80;28.50;;;-2.90;99.90;;;-4.43;100.00;98819.09;5052035;28;20397;-74
2023/02/09 00:34:01;;;;;;;52.72;28.92;;;-2.90;99.90;;;-4.45;100.00;98825.34;5052259;28;20948;-73
2023/02/09 00:36:27;;;;;;;50.70;26.13;;;-3.00;99.90;;;-4.59;100.00;98820.47;5052256;28;20393;-74
2023/02/09 00:38:55;;;;;;;52.28;27.90;;;-3.00;99.90;;;-4.68;100.00;98828.00;5052212;28;20414;-73
2023/02/09 00:42:04;;;;;;;60.15;30.17;;;-3.10;99.90;;;-4.66;100.00;98824.47;5052008;28;20398;-73
2023/02/09 00:44:07;;;;;;;56.10;29.98;;;-3.10;99.90;;;-4.67;100.00;98826.22;5051797;28;20436;-73
2023/02/09 00:46:35;;;;;;;53.08;28.08;;;-3.10;99.90;;;-4.61;100.00;98822.34;5051960;28;20507;-74
2023/02/09 00:49:00;;;;;;;51.70;27.38;;;-3.00;99.90;;;-4.71;100.00;98819.66;5051883;28;20762;-73
2023/02/09 00:51:27;;;;;;;51.90;28.33;;;-3.00;99.90;;;-4.67;100.00;98821.06;5051396;28;20416;-73
2023/02/09 00:53:53;;;;;;;56.05;29.73;;;-3.10;99.90;;;-4.77;100.00;98813.19;5051612;28;20901;-73
2023/02/09 00:56:19;;;;;;;47.22;27.50;;;-3.10;99.90;;;-4.86;100.00;98813.91;5051664;28;20433;-74
2023/02/09 00:58:44;;;;;;;54.10;29.55;;;-3.20;99.90;;;-4.87;100.00;98817.44;5051653;28;20439;-73
2023/02/09 01:01:12;;;;;;;51.25;28.63;;;-3.20;99.90;;;-4.85;100.00;98828.47;5051261;28;20440;-74
2023/02/09 01:03:39;;;;;;;52.70;28.15;;;-3.20;99.90;;;-4.91;100.00;98823.78;5051401;28;20976;-74
2023/02/09 01:06:06;;;;;;;53.55;30.10;;;-3.20;99.90;;;-4.82;100.00;98817.09;5051443;28;20894;-73
2023/02/09 01:08:32;;;;;;;50.75;28.73;;;-3.20;99.90;;;-4.84;100.00;98812.03;5051510;28;20466;-73
2023/02/09 01:10:58;;;;;;;54.50;30.60;;;-3.20;99.90;;;-4.78;100.00;98808.97;5051370;28;20398;-73
2023/02/09 01:13:24;;;;;;;52.75;27.70;;;-3.20;99.90;;;-4.81;100.00;98811.00;5050229;28;20944;-73
2023/02/09 01:15:50;;;;;;;50.20;26.67;;;-3.20;99.90;;;-4.97;100.00;98810.53;5051247;28;20476;-73
2023/02/09 01:18:16;;;;;;;54.03;28.45;;;-3.30;99.90;;;-5.00;100.00;98809.00;5051340;28;20439;-74
2023/02/09 01:20:44;;;;;;;55.60;29.25;;;-3.30;99.90;;;-4.96;100.00;98807.00;5051215;28;20412;-74
2023/02/09 01:23:10;;;;;;;55.38;29.23;;;-3.30;99.90;;;-4.91;100.00;98803.13;5050971;28;20400;-73
2023/02/09 01:25:35;;;;;;;53.53;29.83;;;-3.30;99.90;;;-4.96;100.00;98802.66;5051153;28;20771;-73
2023/02/09 01:28:01;;;;;;;57.15;31.17;;;-3.30;99.90;;;-5.09;100.00;98797.63;5051103;28;20882;-73
2023/02/09 01:30:27;;;;;;;59.57;31.33;;;-3.40;99.90;;;-5.01;100.00;98803.94;5049819;28;20425;-74
2023/02/09 01:32:53;;;;;;;55.85;31.08;;;-3.40;99.90;;;-5.09;100.00;98794.22;5050640;28;20492;-73
2023/02/09 01:35:19;;;;;;;57.67;32.20;;;-3.40;99.90;;;-5.05;100.00;98798.22;5050893;28;20743;-74
2023/02/09 01:37:46;;;;;;;56.08;30.60;;;-3.40;99.90;;;-5.05;100.00;98799.97;5050962;28;20733;-74
2023/02/09 01:40:12;;;;;;;58.25;30.65;;;-3.50;99.90;;;-5.10;100.00;98797.72;5050934;28;20433;-74
2023/02/09 01:42:38;;;;;;;56.30;29.43;;;-3.40;99.90;;;-5.16;100.00;98788.69;5050419;28;20559;-73
2023/02/09 01:45:20;;;;;;;63.72;32.08;;;-3.50;99.90;;;-5.08;100.00;98786.34;5050889;28;20832;-74
2023/02/09 01:47:52;;;;;;;54.58;30.02;;;-3.40;99.90;;;-5.11;100.00;98785.75;5050700;28;20748;-73
2023/02/09 01:50:18;;;;;;;59.53;32.50;;;-3.40;99.90;;;-5.04;100.00;98786.94;5050748;28;20459;-74
2023/02/09 01:52:48;;;;;;;60.60;33.67;;;-3.50;99.90;;;-5.11;100.00;98793.50;5050319;28;20525;-74
2023/02/09 01:55:21;;;;;;;60.67;31.08;;;-3.50;99.90;;;-5.15;100.00;98789.53;5050517;28;21047;-74
2023/02/09 01:57:51;;;;;;;60.08;33.50;;;-3.50;99.90;;;-5.11;100.00;98788.34;5050613;28;20488;-73
2023/02/09 02:00:20;;;;;;;54.90;30.52;;;-3.50;99.90;;;-5.17;100.00;98784.47;5050548;28;20768;-73
2023/02/09 02:02:51;;;;;;;58.55;32.40;;;-3.50;99.90;;;-5.14;100.00;98778.25;5049902;28;20458;-74
2023/02/09 02:05:18;;;;;;;67.50;34.83;;;-3.50;99.90;;;-5.10;100.00;98777.91;5065668;28;20965;-74
2023/02/09 02:07:55;;;;;;;62.30;34.00;;;-3.50;99.90;;;-5.10;100.00;98777.06;5050273;28;20406;-73
2023/02/09 02:10:21;;;;;;;65.95;35.50;;;-3.50;99.90;;;-5.02;100.00;98773.91;5050294;28;20754;-73
2023/02/09 02:12:47;;;;;;;59.30;32.57;;;-3.40;99.90;;;-5.05;100.00;98779.31;5049841;28;20542;-73
2023/02/09 02:15:13;;;;;;;65.57;35.90;;;-3.40;99.90;;;-4.96;100.00;98769.06;5050115;28;20441;-74
2023/02/09 02:18:05;;;;;;;68.18;36.42;;;-3.40;99.90;;;-4.97;100.00;98762.28;5050104;28;20879;-74
2023/02/09 02:21:23;;;;;;;64.00;34.53;;;-3.40;99.90;;;-4.96;100.00;98758.75;5048775;28;20959;-74
2023/02/09 02:24:30;;;;;;;64.22;35.72;;;-3.40;99.90;;;-4.91;100.00;98768.75;5049791;28;20413;-74
2023/02/09 02:27:00;;;;;;;60.33;34.00;;;-3.30;99.90;;;-4.85;100.00;98773.41;5049725;28;20451;-74
2023/02/09 02:30:01;;;;;;;58.93;32.77;;;-3.20;99.90;;;-4.94;100.00;98774.13;5050158;28;20421;-74
2023/02/09 02:32:59;;;;;;;61.65;34.75;;;-3.30;99.90;;;-4.94;100.00;98769.78;5049789;28;20969;-74
2023/02/09 02:35:35;;;;;;;66.53;34.90;;;-3.30;99.90;;;-4.88;100.00;98776.22;5049331;28;20619;-74
2023/02/09 02:38:15;;;;;;;68.57;34.63;;;-3.30;99.90;;;-4.86;100.00;98769.19;5050043;28;20529;-74
2023/02/09 02:40:53;;;;;;;62.08;33.40;;;-3.30;99.90;;;-4.93;100.00;98770.59;5049933;28;20401;-73
2023/02/09 02:43:33;;;;;;;58.78;32.30;;;-3.30;99.90;;;-4.96;100.00;98763.91;5049853;28;20432;-73
2023/02/09 02:46:04;;;;;;;69.20;36.08;;;-3.30;99.90;;;-4.94;100.00;98768.97;5049946;28;20484;-73
2023/02/09 02:48:38;;;;;;;63.00;36.08;;;-3.30;99.90;;;-4.98;100.00;98775.31;5049927;28;20905;-74
2023/02/09 02:51:09;;;;;;;68.80;35.88;;;-3.30;99.90;;;-5.00;100.00;98766.88;5049672;28;20401;-73
2023/02/09 02:53:40;;;;;;;60.17;34.05;;;-3.40;99.90;;;-5.08;100.00;98772.63;5049707;28;20383;-74
2023/02/09 02:56:11;;;;;;;63.65;33.92;;;-3.40;99.90;;;-5.10;100.00;98774.50;5049867;28;20425;-74
2023/02/09 02:58:41;;;;;;;68.45;36.20;;;-3.40;99.90;;;-5.04;100.00;98771.47;5049557;28;20902;-74
2023/02/09 03:01:12;;;;;;;65.38;34.75;;;-3.40;99.90;;;-5.01;100.00;98772.97;5049379;28;20439;-73
2023/02/09 03:03:42;;;;;;;58.88;33.15;;;-3.40;99.90;;;-5.14;100.00;98766.19;5049503;28;20909;-73
2023/02/09 03:06:09;;;;;;;60.67;34.00;;;-3.50;99.90;;;-5.19;100.00;98765.72;5049648;28;20393;-74
2023/02/09 03:08:50;;;;;;;69.30;35.53;;;-3.50;99.90;;;-5.13;100.00;98767.00;5049634;28;20463;-74
2023/02/09 03:11:19;;;;;;;63.63;34.88;;;-3.50;99.90;;;-5.16;100.00;98762.88;5049358;28;20394;-74
2023/02/09 03:14:15;;;;;;;58.70;32.93;;;-3.50;99.90;;;-5.14;100.00;98765.34;5049559;28;20448;-74
2023/02/09 03:16:45;;;;;;;68.95;36.45;;;-3.50;99.90;;;-5.20;100.00;98766.66;5049501;28;20904;-74
2023/02/09 03:19:34;;;;;;;63.28;35.47;;;-3.50;99.90;;;-5.28;100.00;98766.44;5049548;28;20397;-75
2023/02/09 03:22:10;;;;;;;67.93;38.80;;;-3.60;99.90;;;-5.18;100.00;98772.50;5049318;28;20413;-74
2023/02/09 03:24:43;;;;;;;60.37;34.93;;;-3.60;99.90;;;-5.28;100.00;98773.34;5049610;28;20922;-74
2023/02/09 03:27:15;;;;;;;64.47;34.78;;;-3.60;99.90;;;-5.31;100.00;98769.22;5049574;28;20867;-73
2023/02/09 03:29:45;;;;;;;63.72;33.47;;;-3.60;99.90;;;-5.30;100.00;98775.22;5049440;28;20428;-74
2023/02/09 03:32:11;;;;;;;64.57;35.77;;;-3.60;99.90;;;-5.27;100.00;98770.66;5048928;28;20398;-73
2023/02/09 03:34:38;;;;;;;67.38;36.55;;;-3.60;99.90;;;-5.33;100.00;98768.53;5049202;28;20414;-73
2023/02/09 03:37:04;;;;;;;69.18;38.10;;;-3.60;99.90;;;-5.34;100.00;98774.66;5051804;28;20790;-73
2023/02/09 03:39:30;;;;;;;65.03;37.40;;;-3.60;99.90;;;-5.28;100.00;98770.75;5053036;28;20401;-74
2023/02/09 03:41:56;;;;;;;69.17;37.13;;;-3.60;99.90;;;-5.26;100.00;98772.28;5052573;28;20411;-74
2023/02/09 03:44:25;;;;;;;62.22;34.17;;;-3.60;99.90;;;-5.33;100.00;98771.09;5052938;28;20425;-74
2023/02/09 03:46:51;;;;;;;62.30;34.88;;;-3.60;99.90;;;-5.36;100.00;98761.03;5052833;28;20429;-75
2023/02/09 03:49:16;;;;;;;55.13;31.70;;;-3.60;99.90;;;-5.39;100.00;98763.84;5052963;28;20901;-74
2023/02/09 03:51:44;;;;;;;64.53;36.20;;;-3.70;99.90;;;-5.38;100.00;98765.47;5052729;28;20397;-74
2023/02/09 03:54:10;;;;;;;57.08;32.53;;;-3.70;99.90;;;-5.39;100.00;98769.00;5052933;28;20890;-74
2023/02/09 03:56:36;;;;;;;62.15;34.72;;;-3.70;99.90;;;-5.42;100.00;98766.66;5052794;28;20409;-74
2023/02/09 03:59:02;;;;;;;54.75;30.75;;;-3.70;99.90;;;-5.41;100.00;98763.13;5052698;28;20393;-73
2023/02/09 04:01:29;;;;;;;61.45;31.30;;;-3.70;99.90;;;-5.42;100.00;98771.00;5052163;28;20489;-74
2023/02/09 04:03:54;;;;;;;68.43;36.30;;;-3.70;99.90;;;-5.36;100.00;98763.63;5052867;28;20402;-73
2023/02/09 04:06:20;;;;;;;67.27;37.67;;;-3.70;99.90;;;-5.43;100.00;98767.59;5052748;28;20896;-73
2023/02/09 04:08:48;;;;;;;61.67;32.65;;;-3.70;99.90;;;-5.43;100.00;98762.44;5052660;28;20520;-73
2023/02/09 04:11:13;;;;;;;63.50;35.92;;;-3.70;99.90;;;-5.44;100.00;98767.72;5052457;28;20413;-73
2023/02/09 04:13:39;;;;;;;65.28;36.83;;;-3.70;99.90;;;-5.43;100.00;98766.78;5052327;28;20539;-73
2023/02/09 04:16:06;;;;;;;66.03;37.95;;;-3.80;99.90;;;-5.42;100.00;98765.84;5052519;28;20472;-73
2023/02/09 04:18:31;;;;;;;67.40;38.08;;;-3.70;99.90;;;-5.41;100.00;98770.88;5052529;28;20409;-73
2023/02/09 04:20:57;;;;;;;63.90;34.33;;;-3.70;99.90;;;-5.44;100.00;98778.03;5052387;28;20483;-73
2023/02/09 04:23:23;;;;;;;65.10;35.95;;;-3.70;99.90;;;-5.40;100.00;98771.69;5052245;28;20402;-73
2023/02/09 04:25:50;;;;;;;68.67;33.13;;;-3.70;99.90;;;-5.27;100.00;98770.66;5052332;28;20408;-73
2023/02/09 04:28:16;;;;;;;66.28;37.90;;;-3.70;99.90;;;-5.39;100.00;98770.75;5052290;28;20393;-72
2023/02/09 04:30:42;;;;;;;67.07;37.10;;;-3.70;99.90;;;-5.49;100.00;98773.22;5052279;28;20823;-74
2023/02/09 04:33:09;;;;;;;69.10;39.57;;;-3.80;99.90;;;-5.49;100.00;98781.75;5052030;28;20514;-73
2023/02/09 04:35:36;;;;;;;71.22;38.42;;;-3.80;99.90;;;-5.32;100.00;98790.81;5052279;28;20483;-73
2023/02/09 04:38:01;;;;;;;67.10;34.67;;;-3.70;99.90;;;-5.31;100.00;98791.63;5052071;28;20410;-73
2023/02/09 04:40:27;;;;;;;65.32;34.13;;;-3.80;99.90;;;-5.40;100.00;98792.31;5052137;28;21127;-73
2023/02/09 04:42:54;;;;;;;69.38;38.17;;;-3.90;99.90;;;-5.47;100.00;98797.13;5051585;28;20413;-73
2023/02/09 04:45:20;;;;;;;68.05;37.00;;;-3.90;99.90;;;-5.45;100.00;98797.84;5051860;28;20932;-72
2023/02/09 04:47:46;;;;;;;70.40;37.23;;;-3.90;99.90;;;-5.50;100.00;98795.63;5051195;28;20410;-73
2023/02/09 04:50:13;;;;;;;67.22;36.75;;;-3.90;99.90;;;-5.52;100.00;98789.75;5051889;28;20454;-75
2023/02/09 04:52:39;;;;;;;65.13;36.65;;;-4.00;99.90;;;-5.69;100.00;98789.38;5051528;28;20405;-74
2023/02/09 04:55:06;;;;;;;70.80;36.77;;;-4.00;99.90;;;-5.73;100.00;98785.38;5051913;28;20870;-73
2023/02/09 05:00:18;;;;;;;68.33;39.20;;;-4.00;99.90;;;-5.69;100.00;98776.47;5051949;28;20424;-74
2023/02/09 05:02:44;;;;;;;69.90;38.47;;;-3.90;99.90;;;-5.67;100.00;98778.00;5093187;22;20902;-78
2023/02/09 05:05:10;;;;;;;73.55;39.85;;;-3.90;99.90;;;-5.69;100.00;98779.88;5091889;28;20409;-78
2023/02/09 05:07:35;;;;;;;76.32;41.33;;;-4.00;99.90;;;-5.52;100.00;98778.59;5086216;28;20406;-76
2023/02/09 05:10:02;;;;;;;70.00;37.17;;;-3.90;99.90;;;-5.65;100.00;98783.06;5082099;28;20891;-77
2023/02/09 05:12:28;;;;;;;69.00;38.03;;;-3.90;99.90;;;-5.63;100.00;98776.00;5079121;28;20883;-77
2023/02/09 05:14:54;;;;;;;80.37;42.37;;;-3.90;99.90;;;-5.56;100.00;98783.16;5078975;28;20450;-75
2023/02/09 05:17:21;;;;;;;67.45;37.80;;;-3.90;99.90;;;-5.64;100.00;98776.97;5078505;28;20403;-76
2023/02/09 05:19:47;;;;;;;70.55;39.03;;;-3.90;99.90;;;-5.67;100.00;98766.88;5071639;28;20483;-79
2023/02/09 05:22:14;;;;;;;72.30;41.10;;;-4.00;99.90;;;-5.67;100.00;98762.53;5071191;28;20474;-85
2023/02/09 05:24:40;;;;;;;76.53;42.53;;;-3.90;99.90;;;-5.63;100.00;98763.09;5071432;28;20474;-74
2023/02/09 05:27:06;;;;;;;66.87;35.93;;;-3.90;99.90;;;-5.64;100.00;98769.22;5071416;28;20541;-75
2023/02/09 05:29:31;;;;;;;71.80;38.47;;;-3.90;99.90;;;-5.61;100.00;98766.41;5071300;28;20431;-74
2023/02/09 05:31:57;;;;;;;76.57;42.72;;;-3.90;99.90;;;-5.63;100.00;98768.25;5070650;28;20403;-75
2023/02/09 05:34:25;;;;;;;75.97;42.42;;;-3.90;99.90;;;-5.56;100.00;98769.44;5069818;28;20399;-75
2023/02/09 05:36:50;;;;;;;75.90;42.60;;;-3.90;99.90;;;-5.56;100.00;98772.03;5068962;28;20797;-74
2023/02/09 05:39:16;;;;;;;80.57;43.47;;;-3.90;99.90;;;-5.54;100.00;98757.25;5071426;28;20500;-75
2023/02/09 05:44:27;;;;;;;76.07;40.65;;;-3.90;99.90;;;-5.60;100.00;98766.28;5071030;28;20399;-75
2023/02/09 05:46:53;;;;;;;86.57;46.10;;;-3.90;99.90;;;-5.55;100.00;98774.50;5075808;28;20425;-76
2023/02/09 05:49:19;;;;;;;77.57;45.03;;;-3.90;99.90;;;-5.50;100.00;98763.84;5072638;28;20404;-75
2023/02/09 05:51:46;;;;;;;79.07;44.80;;;-3.90;99.90;;;-5.56;100.00;98762.53;5089726;28;20497;-76
2023/02/09 05:54:12;;;;;;;74.78;41.50;;;-3.90;99.90;;;-5.63;100.00;98763.94;5091117;28;20447;-76
2023/02/09 05:56:39;;;;;;;77.10;43.13;;;-3.90;99.90;;;-5.60;100.00;98761.13;5090337;28;20477;-76
2023/02/09 05:59:05;;;;;;;82.32;42.70;;;-3.90;99.90;;;-5.57;100.00;98760.09;5089491;28;20467;-76
2023/02/09 06:01:31;;;;;;;75.18;39.70;;;-3.90;99.90;;;-5.64;100.00;98762.28;5074760;28;20758;-75
2023/02/09 06:03:57;;;;;;;72.43;38.95;;;-3.90;99.90;;;-5.69;100.00;98763.56;5069296;28;20939;-75
2023/02/09 06:06:23;;;;;;;74.20;40.38;;;-4.00;99.90;;;-5.73;100.00;98757.00;5060850;28;20411;-77
2023/02/09 06:08:50;;;;;;;73.53;41.60;;;-4.00;99.90;;;-5.72;100.00;98764.66;5064531;28;20403;-76
2023/02/09 06:11:18;;;;;;;68.18;40.38;;;-4.00;99.90;;;-5.71;100.00;98768.84;5069133;28;20483;-77
2023/02/09 06:13:44;;;;;;;72.60;41.08;;;-4.00;99.90;;;-5.77;100.00;98771.06;5070176;28;20395;-77
2023/02/09 06:16:10;;;;;;;74.75;41.60;;;-4.00;99.90;;;-5.79;100.00;98773.78;5069039;28;20765;-76
2023/02/09 06:18:37;;;;;;;65.72;36.90;;;-4.00;99.90;;;-5.80;100.00;98776.47;5068127;28;20516;-76
2023/02/09 06:21:03;;;;;;;75.78;41.60;;;-4.10;99.90;;;-5.78;100.00;98775.41;5067744;28;20823;-77
2023/02/09 06:23:29;;;;;;;78.10;41.17;;;-4.10;99.90;;;-5.69;100.00;98782.44;5070146;28;20911;-76
2023/02/09 06:25:56;;;;;;;69.72;39.13;;;-4.10;99.90;;;-5.83;100.00;98779.25;5070387;28;20400;-75
2023/02/09 06:28:22;;;;;;;70.93;38.38;;;-4.10;99.90;;;-5.88;100.00;98784.81;5070339;28;20400;-75
2023/02/09 06:30:49;;;;;;;76.03;40.03;;;-4.20;99.90;;;-5.83;100.00;98792.97;5070443;28;20404;-75
2023/02/09 06:33:15;;;;;;;65.00;36.53;;;-4.20;99.90;;;-5.95;100.00;98789.59;5070010;28;20408;-74
2023/02/09 06:35:41;;;;;;;76.00;41.75;;;-4.20;99.90;;;-5.89;100.00;98794.28;5070182;28;20415;-74
2023/02/09 06:38:07;;;;;;;76.38;41.55;;;-4.30;99.90;;;-5.95;100.00;98799.06;5070268;28;20404;-74
2023/02/09 06:40:33;;;;;;;76.75;41.40;;;-4.30;99.90;;;-6.05;100.00;98803.25;5070147;28;20506;-74
2023/02/09 06:43:00;;;;;;;68.07;38.13;;;-4.30;99.90;;;-6.08;100.00;98799.13;5069897;28;20399;-75
2023/02/09 06:45:26;;;;;;;79.07;43.08;;;-4.40;99.90;;;-6.06;100.00;98799.84;5069580;28;20404;-74
2023/02/09 06:47:52;;;;;;;72.75;40.05;;;-4.30;99.90;;;-6.06;100.00;98811.91;5070891;28;20419;-74
2023/02/09 06:50:19;;;;;;;77.90;41.77;;;-4.30;99.90;;;-6.04;100.00;98799.75;5064096;28;20437;-74
2023/02/09 06:52:45;;;;;;;71.88;38.20;;;-4.30;99.90;;;-6.01;100.00;98809.81;5072492;28;20415;-74
2023/02/09 06:55:12;;;;;;;75.72;41.42;;;-4.30;99.90;;;-6.00;100.00;98822.59;5067167;28;20416;-74
2023/02/09 06:57:38;;;;;;;70.68;39.72;;;-4.20;99.90;;;-5.98;100.00;98817.34;5064143;28;20414;-74
2023/02/09 07:00:08;;;;;;;76.82;41.38;;;-4.30;99.90;;;-5.94;100.00;98816.97;5071803;28;20412;-74
2023/02/09 07:02:35;;;;;;;71.13;38.97;;;-4.20;99.90;;;-5.95;100.00;98814.53;5071281;28;20447;-74
2023/02/09 07:05:01;;;;;;;72.55;39.92;;;-4.20;99.90;;;-5.95;100.00;98827.44;5069717;28;20388;-74
2023/02/09 07:07:27;;;;;;;85.93;44.85;;;-4.20;99.90;;;-5.88;100.00;98821.72;5069954;28;20402;-75
2023/02/09 07:09:52;;;;;;;71.78;40.38;;;-4.20;99.90;;;-5.88;100.00;98823.47;5070676;28;20392;-74
2023/02/09 07:12:18;;;;;;;71.72;40.08;;;-4.20;99.90;;;-5.92;100.00;98825.44;5073612;28;20494;-74
2023/02/09 07:14:44;;;;;;;77.80;42.97;;;-4.20;99.90;;;-5.90;100.00;98825.34;5073674;28;20900;-75
2023/02/09 07:17:11;;;;;;;66.75;38.90;;;-4.20;99.90;;;-5.89;100.00;98830.38;5073866;28;20399;-74
2023/02/09 07:19:37;;;;;;;73.03;40.50;;;-4.20;99.90;;;-5.92;100.00;98827.19;5073792;28;20400;-73
2023/02/09 07:22:03;;;;;;;76.10;41.28;;;-4.20;99.90;;;-5.90;100.00;98833.88;5073395;28;20398;-74
2023/02/09 07:24:29;;;;;;;73.50;40.75;;;-4.20;99.90;;;-5.88;100.00;98839.75;5073626;28;20892;-73
2023/02/09 07:26:55;;;;;;;74.22;40.58;;;-4.20;99.90;;;-5.85;100.00;98836.09;5072234;28;20450;-74
2023/02/09 07:29:21;;;;;;;68.75;39.72;;;-4.10;99.90;;;-5.80;100.00;98836.59;5073589;28;20407;-75
2023/02/09 07:31:47;;;;;;;70.93;39.42;;;-4.10;99.90;;;-5.77;100.00;98841.50;5073147;28;20415;-75
2023/02/09 07:34:15;;;;;;;82.15;42.75;;;-4.10;99.90;;;-5.74;100.00;98843.88;5073506;28;20403;-75
2023/02/09 07:36:42;;;;;;;71.90;40.78;;;-4.00;99.90;;;-5.70;100.00;98840.13;5073347;28;20440;-75
2023/02/09 07:39:08;;;;;;;74.70;41.90;;;-4.00;99.90;;;-5.64;100.00;98844.81;5073425;28;20436;-75
2023/02/09 07:41:34;;;;;;;71.80;40.10;;;-3.90;99.90;;;-5.63;100.00;98846.47;5073034;28;20908;-75
2023/02/09 07:44:00;;;;;;;73.57;42.35;;;-3.90;99.90;;;-5.59;100.00;98841.91;5073337;28;20407;-76
2023/02/09 07:46:26;;;;;;;81.05;46.55;;;-3.90;99.90;;;-5.52;100.00;98837.94;5073303;28;20403;-75
2023/02/09 07:48:53;;;;;;;74.63;43.75;;;-3.90;99.90;;;-5.47;100.00;98841.00;5073283;28;20411;-75
2023/02/09 07:51:24;;;;;;;85.65;48.95;;;-3.80;99.90;;;-5.38;100.00;98837.72;5073008;28;20399;-75
2023/02/09 07:53:50;;;;;;;80.15;45.70;;;-3.80;99.90;;;-5.33;100.00;98839.94;5073209;28;20899;-75
2023/02/09 07:56:16;;;;;;;79.38;46.60;;;-3.70;99.90;;;-5.30;100.00;98842.31;5073040;28;20418;-75
2023/02/09 07:58:42;;;;;;;81.05;48.72;;;-3.70;99.90;;;-5.23;100.00;98836.56;5071822;28;20788;-76
2023/02/09 08:01:11;;;;;;;80.57;47.28;;;-3.60;99.90;;;-5.15;100.00;98833.41;5072779;28;20399;-75
2023/02/09 08:03:40;;;;;;;92.97;53.78;;;-3.50;99.90;;;-5.04;100.00;98838.59;5072906;28;20400;-75
2023/02/09 08:06:17;;;;;;;86.47;51.55;;;-3.50;99.90;;;-4.95;100.00;98837.84;5071789;28;20546;-75
2023/02/09 08:08:46;;;;;;;91.97;52.42;;;-3.30;99.90;;;-4.86;100.00;98841.50;5071618;28;20404;-76
2023/02/09 08:11:13;;;;;;;89.97;51.03;;;-3.30;99.90;;;-4.76;100.00;98837.28;5072631;28;20396;-75
2023/02/09 08:13:40;;;;;;;87.95;52.45;;;-3.20;99.90;;;-4.63;100.00;98842.28;5071309;28;20411;-75
2023/02/09 08:16:10;;;;;;;82.57;49.47;;;-3.10;99.90;;;-4.55;100.00;98848.50;5072761;28;20437;-75
2023/02/09 08:18:41;;;;;;;82.85;48.67;;;-3.00;99.90;;;-4.48;100.00;98846.25;5072705;28;20524;-75
2023/02/09 08:21:12;;;;;;;82.28;49.72;;;-2.90;99.90;;;-4.44;100.00;98845.91;5072416;28;20428;-75
2023/02/09 08:23:40;;;;;;;86.75;51.78;;;-2.90;99.90;;;-4.36;100.00;98856.44;5070656;28;20404;-75
2023/02/09 08:26:12;;;;;;;81.75;48.70;;;-2.80;99.90;;;-4.29;100.00;98851.63;5072575;28;20437;-75
2023/02/09 08:28:44;;;;;;;82.05;48.85;;;-2.70;99.90;;;-4.21;100.00;98843.28;5072578;28;20403;-75
2023/02/09 08:31:10;;;;;;;100.97;61.42;;;-2.70;99.90;;;-4.13;100.00;98846.84;5072412;28;20398;-75
2023/02/09 08:33:36;;;;;;;82.40;48.38;;;-2.60;99.90;;;-4.07;100.00;98854.16;5070960;28;20412;-75
2023/02/09 08:36:03;;;;;;;84.07;49.97;;;-2.60;99.90;;;-3.94;100.00;98851.41;5095012;28;20498;-75
2023/02/09 08:38:29;;;;;;;88.53;51.25;;;-2.40;99.90;;;-3.85;100.00;98842.91;5072327;28;20493;-74
2023/02/09 08:40:54;;;;;;;83.07;49.13;;;-2.40;99.90;;;-3.73;100.00;98844.47;5072319;28;20411;-75
2023/02/09 08:43:22;;;;;;;80.50;47.03;;;-2.30;99.90;;;-3.71;100.00;98850.34;5072109;28;20400;-75
2023/02/09 08:45:49;;;;;;;73.10;46.05;;;-2.30;99.90;;;-3.58;100.00;98850.16;5072145;28;20387;-75
2023/02/09 08:48:15;;;;;;;84.45;51.03;;;-2.10;99.90;;;-3.46;100.00;98848.34;5072100;28;20429;-76
2023/02/09 08:50:41;;;;;;;77.78;47.25;;;-2.00;99.90;;;-3.34;100.00;98848.13;5072185;28;20396;-75
2023/02/09 08:53:07;;;;;;;78.95;46.53;;;-1.90;99.90;;;-3.26;100.00;98856.09;5071687;28;20907;-75
2023/02/09 08:55:36;;;;;;;83.93;48.40;;;-1.90;99.90;;;-3.11;100.00;98859.16;5071944;28;20415;-76
2023/02/09 08:58:03;;;;;;;86.88;49.75;;;-1.70;99.90;;;-2.93;100.00;98849.81;5071871;28;20889;-75
2023/02/09 09:00:31;;;;;;;81.32;46.08;;;-1.50;99.90;;;-2.88;100.00;98849.44;5071984;28;20399;-75
2023/02/09 09:02:57;;;;;;;87.70;48.22;;;-1.50;99.90;;;-2.94;100.00;98845.63;5071326;28;20410;-76
2023/02/09 09:05:23;;;;;;;77.68;47.22;;;-1.50;99.90;;;-2.79;100.00;98849.50;5071790;28;20744;-76
2023/02/09 09:07:48;;;;;;;80.05;47.63;;;-1.40;99.90;;;-2.73;100.00;98845.56;5071886;28;20407;-76
2023/02/09 09:10:14;;;;;;;74.97;45.00;;;-1.30;99.90;;;-2.66;100.00;98846.66;5070546;28;20455;-76
2023/02/09 09:12:40;;;;;;;75.72;45.03;;;-1.20;99.90;;;-2.57;100.00;98852.84;5071193;28;20395;-75
2023/02/09 09:15:07;;;;;;;70.85;43.47;;;-1.20;99.90;;;-2.51;100.00;98849.72;5071375;28;21127;-76
2023/02/09 09:17:35;;;;;;;77.20;46.78;;;-1.20;99.90;;;-2.41;100.00;98846.19;5071500;28;20438;-76
2023/02/09 09:20:01;;;;;;;74.38;45.63;;;-1.00;99.90;;;-2.27;100.00;98852.78;5071613;28;20404;-76
2023/02/09 09:22:26;;;;;;;74.05;46.22;;;-0.90;99.90;;;-2.23;100.00;98858.50;5071151;28;20453;-75
2023/02/09 09:24:54;;;;;;;71.03;43.05;;;-0.80;99.90;;;-2.26;100.00;98848.41;5071508;28;20404;-75
2023/02/09 09:27:20;;;;;;;70.38;43.38;;;-0.90;99.90;;;-2.14;100.00;98852.50;5071330;28;20761;-75
2023/02/09 09:29:46;;;;;;;71.90;43.67;;;-0.80;99.90;;;-2.03;100.00;98855.00;5071298;28;20404;-76
2023/02/09 09:32:15;;;;;;;77.60;46.72;;;-0.70;99.90;;;-1.84;100.00;98860.16;5070931;28;20400;-75
2023/02/09 09:34:42;;;;;;;73.53;45.50;;;-0.50;99.90;;;-1.72;100.00;98864.25;5070238;28;20457;-75
2023/02/09 09:37:08;;;;;;;71.93;42.97;;;-0.40;99.90;;;-1.65;100.00;98862.75;5069847;28;20411;-75
2023/02/09 09:39:34;;;;;;;71.95;42.53;;;-0.30;99.90;;;-1.54;100.00;98871.34;5071180;28;20457;-76
2023/02/09 09:42:00;;;;;;;76.50;46.67;;;-0.20;99.90;;;-1.42;100.00;98876.25;5070706;28;21007;-76
2023/02/09 09:44:31;;;;;;;67.97;42.35;;;-0.10;99.90;;;-1.33;100.00;98875.44;5071036;28;20407;-76
2023/02/09 09:47:02;;;;;;;68.50;42.25;;;0.00;99.90;;;-1.19;100.00;98875.00;5070965;28;20482;-76
2023/02/09 09:49:31;;;;;;;68.30;40.47;;;0.10;99.90;;;-1.13;100.00;98872.81;5070969;28;20453;-76
2023/02/09 09:52:05;;;;;;;66.25;39.20;;;0.20;99.90;;;-0.94;100.00;98881.38;5070488;28;20521;-75
2023/02/09 09:54:33;;;;;;;63.42;37.55;;;0.40;99.90;;;-0.64;100.00;98875.09;5073919;28;20395;-75
2023/02/09 09:57:00;;;;;;;56.30;35.63;;;0.60;99.90;;;-0.26;100.00;98881.88;5066399;28;20771;-75
2023/02/09 09:59:33;;;;;;;63.80;35.83;;;1.00;99.90;;;0.19;100.00;98886.25;5070311;28;20419;-76
2023/02/09 10:02:15;;;;;;;53.60;34.15;;;1.50;99.90;;;0.69;100.00;98883.91;5069617;28;20495;-75
2023/02/09 10:04:41;;;;;;;56.08;34.65;;;2.10;99.90;;;1.26;100.00;98887.72;5063858;28;20466;-75
2023/02/09 10:07:17;;;;;;;54.60;33.58;;;2.70;99.90;;;1.80;100.00;98876.03;5069139;28;20435;-76
2023/02/09 10:09:49;;;;;;;55.55;34.95;;;3.20;99.90;;;2.36;100.00;98878.88;5069189;28;25148;-76
2023/02/09 10:12:31;;;;;;;54.47;33.83;;;3.70;99.90;;;2.65;100.00;98882.66;5069669;28;20451;-77
2023/02/09 10:14:58;;;;;;;58.55;35.47;;;4.00;99.90;;;2.95;100.00;98881.16;5070273;28;25091;-76